sensor_id;sensor_type;location;lat;lon;timestamp;P1;durP1;ratioP1;P2;durP2;ratioP2
36715;SDS011;22699;51.034;3.730;2022-10-31T00:01:19;10.85;;;4.55;;
36715;SDS011;22699;51.034;3.730;2022-10-31T00:03:47;8.20;;;4.63;;
36715;SDS011;22699;51.034;3.730;2022-10-31T00:06:13;6.45;;;4.28;;
36715;SDS011;22699;51.034;3.730;2022-10-31T00:08:39;9.25;;;4.25;;
36715;SDS011;22699;51.034;3.730;2022-10-31T00:11:08;8.63;;;4.38;;
36715;SDS011;22699;51.034;3.730;2022-10-31T00:13:34;9.93;;;5.03;;
36715;SDS011;22699;51.034;3.730;2022-10-31T00:15:59;6.00;;;4.25;;
36715;SDS011;22699;51.034;3.730;2022-10-31T00:18:25;6.78;;;4.55;;
36715;SDS011;22699;51.034;3.730;2022-10-31T00:21:00;7.50;;;4.25;;
36715;SDS011;22699;51.034;3.730;2022-10-31T00:23:27;7.68;;;4.20;;
36715;SDS011;22699;51.034;3.730;2022-10-31T00:25:53;5.35;;;4.20;;
36715;SDS011;22699;51.034;3.730;2022-10-31T00:28:18;9.13;;;4.38;;
36715;SDS011;22699;51.034;3.730;2022-10-31T00:30:44;8.85;;;4.32;;
36715;SDS011;22699;51.034;3.730;2022-10-31T00:33:09;6.97;;;4.50;;
36715;SDS011;22699;51.034;3.730;2022-10-31T00:35:36;8.18;;;4.18;;
36715;SDS011;22699;51.034;3.730;2022-10-31T00:38:02;8.30;;;5.13;;
36715;SDS011;22699;51.034;3.730;2022-10-31T00:40:27;9.27;;;5.05;;
36715;SDS011;22699;51.034;3.730;2022-10-31T00:42:53;11.05;;;5.38;;
36715;SDS011;22699;51.034;3.730;2022-10-31T00:45:21;8.02;;;5.13;;
36715;SDS011;22699;51.034;3.730;2022-10-31T00:47:47;8.52;;;4.78;;
36715;SDS011;22699;51.034;3.730;2022-10-31T00:50:12;10.00;;;5.53;;
36715;SDS011;22699;51.034;3.730;2022-10-31T00:52:38;10.00;;;4.55;;
36715;SDS011;22699;51.034;3.730;2022-10-31T00:55:04;8.25;;;5.35;;
36715;SDS011;22699;51.034;3.730;2022-10-31T00:57:29;10.10;;;5.10;;
36715;SDS011;22699;51.034;3.730;2022-10-31T00:59:55;8.48;;;5.00;;
36715;SDS011;22699;51.034;3.730;2022-10-31T01:02:22;8.32;;;5.30;;
36715;SDS011;22699;51.034;3.730;2022-10-31T01:04:48;10.63;;;5.45;;
36715;SDS011;22699;51.034;3.730;2022-10-31T01:07:14;9.05;;;5.15;;
36715;SDS011;22699;51.034;3.730;2022-10-31T01:09:40;12.82;;;5.47;;
36715;SDS011;22699;51.034;3.730;2022-10-31T01:12:12;7.05;;;5.03;;
36715;SDS011;22699;51.034;3.730;2022-10-31T01:14:38;9.00;;;4.97;;
36715;SDS011;22699;51.034;3.730;2022-10-31T01:17:08;9.68;;;5.57;;
36715;SDS011;22699;51.034;3.730;2022-10-31T01:19:34;9.82;;;5.13;;
36715;SDS011;22699;51.034;3.730;2022-10-31T01:22:00;6.15;;;4.28;;
36715;SDS011;22699;51.034;3.730;2022-10-31T01:24:25;7.78;;;5.05;;
36715;SDS011;22699;51.034;3.730;2022-10-31T01:26:52;10.00;;;4.82;;
36715;SDS011;22699;51.034;3.730;2022-10-31T01:29:18;12.68;;;4.97;;
36715;SDS011;22699;51.034;3.730;2022-10-31T01:31:44;10.60;;;5.88;;
36715;SDS011;22699;51.034;3.730;2022-10-31T01:34:14;10.35;;;5.00;;
36715;SDS011;22699;51.034;3.730;2022-10-31T01:36:40;8.02;;;5.50;;
36715;SDS011;22699;51.034;3.730;2022-10-31T01:39:08;7.70;;;4.90;;
36715;SDS011;22699;51.034;3.730;2022-10-31T01:41:37;10.63;;;4.72;;
36715;SDS011;22699;51.034;3.730;2022-10-31T01:46:45;6.13;;;5.32;;
36715;SDS011;22699;51.034;3.730;2022-10-31T01:51:50;7.88;;;5.35;;
36715;SDS011;22699;51.034;3.730;2022-10-31T01:54:24;8.52;;;5.55;;
36715;SDS011;22699;51.034;3.730;2022-10-31T01:56:56;9.75;;;5.57;;
36715;SDS011;22699;51.034;3.730;2022-10-31T01:59:24;12.80;;;5.70;;
36715;SDS011;22699;51.034;3.730;2022-10-31T02:01:53;10.45;;;5.70;;
36715;SDS011;22699;51.034;3.730;2022-10-31T02:04:19;10.27;;;5.85;;
36715;SDS011;22699;51.034;3.730;2022-10-31T02:07:10;9.80;;;6.57;;
36715;SDS011;22699;51.034;3.730;2022-10-31T02:09:36;9.10;;;5.93;;
36715;SDS011;22699;51.034;3.730;2022-10-31T02:12:03;10.20;;;6.35;;
36715;SDS011;22699;51.034;3.730;2022-10-31T02:14:29;7.18;;;5.35;;
36715;SDS011;22699;51.034;3.730;2022-10-31T02:16:56;10.38;;;6.95;;
36715;SDS011;22699;51.034;3.730;2022-10-31T02:22:02;8.25;;;6.28;;
36715;SDS011;22699;51.034;3.730;2022-10-31T02:30:07;7.63;;;5.65;;
36715;SDS011;22699;51.034;3.730;2022-10-31T02:46:25;9.85;;;6.70;;
36715;SDS011;22699;51.034;3.730;2022-10-31T02:48:53;9.57;;;6.78;;
36715;SDS011;22699;51.034;3.730;2022-10-31T02:51:22;9.43;;;6.47;;
36715;SDS011;22699;51.034;3.730;2022-10-31T02:53:48;8.90;;;6.38;;
36715;SDS011;22699;51.034;3.730;2022-10-31T02:56:16;8.93;;;6.30;;
36715;SDS011;22699;51.034;3.730;2022-10-31T03:01:19;12.57;;;7.70;;
36715;SDS011;22699;51.034;3.730;2022-10-31T03:04:02;8.73;;;6.60;;
36715;SDS011;22699;51.034;3.730;2022-10-31T03:09:37;7.90;;;6.35;;
36715;SDS011;22699;51.034;3.730;2022-10-31T03:15:12;12.52;;;7.20;;
36715;SDS011;22699;51.034;3.730;2022-10-31T03:17:50;9.02;;;6.03;;
36715;SDS011;22699;51.034;3.730;2022-10-31T03:20:47;8.90;;;6.43;;
36715;SDS011;22699;51.034;3.730;2022-10-31T03:23:19;9.85;;;6.55;;
36715;SDS011;22699;51.034;3.730;2022-10-31T03:25:48;9.82;;;6.53;;
36715;SDS011;22699;51.034;3.730;2022-10-31T03:28:16;10.23;;;7.30;;
36715;SDS011;22699;51.034;3.730;2022-10-31T03:30:47;8.93;;;6.90;;
36715;SDS011;22699;51.034;3.730;2022-10-31T03:33:16;12.73;;;7.15;;
36715;SDS011;22699;51.034;3.730;2022-10-31T03:35:47;10.52;;;7.53;;
36715;SDS011;22699;51.034;3.730;2022-10-31T03:38:15;12.00;;;7.68;;
36715;SDS011;22699;51.034;3.730;2022-10-31T03:40:41;10.73;;;7.88;;
36715;SDS011;22699;51.034;3.730;2022-10-31T03:43:14;14.32;;;9.30;;
36715;SDS011;22699;51.034;3.730;2022-10-31T03:45:47;11.20;;;9.27;;
36715;SDS011;22699;51.034;3.730;2022-10-31T03:48:13;13.00;;;8.20;;
36715;SDS011;22699;51.034;3.730;2022-10-31T03:53:58;11.00;;;8.27;;
36715;SDS011;22699;51.034;3.730;2022-10-31T03:56:55;10.23;;;7.15;;
36715;SDS011;22699;51.034;3.730;2022-10-31T04:02:07;13.68;;;8.93;;
36715;SDS011;22699;51.034;3.730;2022-10-31T04:04:39;13.15;;;8.73;;
36715;SDS011;22699;51.034;3.730;2022-10-31T04:07:06;13.25;;;8.95;;
36715;SDS011;22699;51.034;3.730;2022-10-31T04:09:35;12.13;;;9.48;;
36715;SDS011;22699;51.034;3.730;2022-10-31T04:12:04;14.73;;;9.53;;
36715;SDS011;22699;51.034;3.730;2022-10-31T04:17:04;12.48;;;9.48;;
36715;SDS011;22699;51.034;3.730;2022-10-31T04:19:34;16.00;;;9.35;;
36715;SDS011;22699;51.034;3.730;2022-10-31T04:21:59;13.57;;;9.23;;
36715;SDS011;22699;51.034;3.730;2022-10-31T04:24:26;15.48;;;9.55;;
36715;SDS011;22699;51.034;3.730;2022-10-31T04:26:51;15.05;;;9.10;;
36715;SDS011;22699;51.034;3.730;2022-10-31T04:29:17;15.35;;;9.52;;
36715;SDS011;22699;51.034;3.730;2022-10-31T04:31:42;15.48;;;10.48;;
36715;SDS011;22699;51.034;3.730;2022-10-31T04:34:08;15.25;;;10.77;;
36715;SDS011;22699;51.034;3.730;2022-10-31T04:36:34;16.77;;;9.65;;
36715;SDS011;22699;51.034;3.730;2022-10-31T04:38:59;15.68;;;11.15;;
36715;SDS011;22699;51.034;3.730;2022-10-31T04:41:25;15.98;;;11.02;;
36715;SDS011;22699;51.034;3.730;2022-10-31T04:43:51;19.23;;;11.32;;
36715;SDS011;22699;51.034;3.730;2022-10-31T04:46:17;16.70;;;11.57;;
36715;SDS011;22699;51.034;3.730;2022-10-31T04:48:43;18.38;;;10.70;;
36715;SDS011;22699;51.034;3.730;2022-10-31T04:51:08;18.17;;;11.70;;
36715;SDS011;22699;51.034;3.730;2022-10-31T04:53:34;18.92;;;11.18;;
36715;SDS011;22699;51.034;3.730;2022-10-31T04:56:00;17.60;;;11.40;;
36715;SDS011;22699;51.034;3.730;2022-10-31T04:58:26;17.13;;;10.65;;
36715;SDS011;22699;51.034;3.730;2022-10-31T05:00:53;14.70;;;10.77;;
36715;SDS011;22699;51.034;3.730;2022-10-31T05:03:20;17.85;;;11.20;;
36715;SDS011;22699;51.034;3.730;2022-10-31T05:05:46;17.88;;;10.82;;
36715;SDS011;22699;51.034;3.730;2022-10-31T05:08:12;20.15;;;12.07;;
36715;SDS011;22699;51.034;3.730;2022-10-31T05:10:39;18.27;;;11.45;;
36715;SDS011;22699;51.034;3.730;2022-10-31T05:13:04;16.50;;;12.25;;
36715;SDS011;22699;51.034;3.730;2022-10-31T05:15:32;22.90;;;11.90;;
36715;SDS011;22699;51.034;3.730;2022-10-31T05:17:58;19.63;;;12.77;;
36715;SDS011;22699;51.034;3.730;2022-10-31T05:20:25;16.60;;;12.00;;
36715;SDS011;22699;51.034;3.730;2022-10-31T05:22:53;19.73;;;13.07;;
36715;SDS011;22699;51.034;3.730;2022-10-31T05:25:21;16.48;;;11.95;;
36715;SDS011;22699;51.034;3.730;2022-10-31T05:27:49;21.15;;;12.60;;
36715;SDS011;22699;51.034;3.730;2022-10-31T05:30:16;19.08;;;13.68;;
36715;SDS011;22699;51.034;3.730;2022-10-31T05:32:45;20.53;;;13.43;;
36715;SDS011;22699;51.034;3.730;2022-10-31T05:35:13;20.75;;;11.95;;
36715;SDS011;22699;51.034;3.730;2022-10-31T05:37:40;20.27;;;13.82;;
36715;SDS011;22699;51.034;3.730;2022-10-31T05:40:07;16.92;;;12.63;;
36715;SDS011;22699;51.034;3.730;2022-10-31T05:42:35;16.90;;;11.57;;
36715;SDS011;22699;51.034;3.730;2022-10-31T05:45:02;18.83;;;11.65;;
36715;SDS011;22699;51.034;3.730;2022-10-31T05:47:28;16.73;;;10.93;;
36715;SDS011;22699;51.034;3.730;2022-10-31T05:49:54;16.75;;;11.02;;
36715;SDS011;22699;51.034;3.730;2022-10-31T05:52:20;19.75;;;12.15;;
36715;SDS011;22699;51.034;3.730;2022-10-31T05:54:47;16.90;;;11.38;;
36715;SDS011;22699;51.034;3.730;2022-10-31T05:57:13;13.50;;;10.38;;
36715;SDS011;22699;51.034;3.730;2022-10-31T05:59:38;16.25;;;11.30;;
36715;SDS011;22699;51.034;3.730;2022-10-31T06:02:04;13.85;;;10.65;;
36715;SDS011;22699;51.034;3.730;2022-10-31T06:04:30;16.30;;;10.40;;
36715;SDS011;22699;51.034;3.730;2022-10-31T06:06:56;18.13;;;10.60;;
36715;SDS011;22699;51.034;3.730;2022-10-31T06:09:22;18.67;;;11.85;;
36715;SDS011;22699;51.034;3.730;2022-10-31T06:11:48;16.50;;;10.35;;
36715;SDS011;22699;51.034;3.730;2022-10-31T06:14:14;12.57;;;10.05;;
36715;SDS011;22699;51.034;3.730;2022-10-31T06:16:41;16.23;;;10.55;;
36715;SDS011;22699;51.034;3.730;2022-10-31T06:19:06;15.65;;;10.60;;
36715;SDS011;22699;51.034;3.730;2022-10-31T06:21:32;15.18;;;9.95;;
36715;SDS011;22699;51.034;3.730;2022-10-31T06:23:57;13.75;;;9.75;;
36715;SDS011;22699;51.034;3.730;2022-10-31T06:26:23;13.73;;;9.07;;
36715;SDS011;22699;51.034;3.730;2022-10-31T06:28:49;14.32;;;9.50;;
36715;SDS011;22699;51.034;3.730;2022-10-31T06:31:14;12.30;;;9.27;;
36715;SDS011;22699;51.034;3.730;2022-10-31T06:33:41;16.95;;;9.52;;
36715;SDS011;22699;51.034;3.730;2022-10-31T06:36:10;17.10;;;9.65;;
36715;SDS011;22699;51.034;3.730;2022-10-31T06:38:35;13.30;;;9.43;;
36715;SDS011;22699;51.034;3.730;2022-10-31T06:41:02;16.80;;;10.15;;
36715;SDS011;22699;51.034;3.730;2022-10-31T06:43:53;14.65;;;9.55;;
36715;SDS011;22699;51.034;3.730;2022-10-31T06:54:22;17.40;;;10.02;;
36715;SDS011;22699;51.034;3.730;2022-10-31T06:56:55;16.38;;;10.23;;
36715;SDS011;22699;51.034;3.730;2022-10-31T06:59:29;13.68;;;9.80;;
36715;SDS011;22699;51.034;3.730;2022-10-31T07:01:59;16.75;;;10.25;;
36715;SDS011;22699;51.034;3.730;2022-10-31T07:15:58;16.40;;;10.82;;
36715;SDS011;22699;51.034;3.730;2022-10-31T07:18:52;12.73;;;9.10;;
36715;SDS011;22699;51.034;3.730;2022-10-31T07:21:43;14.55;;;10.10;;
36715;SDS011;22699;51.034;3.730;2022-10-31T07:27:39;12.88;;;9.85;;
36715;SDS011;22699;51.034;3.730;2022-10-31T07:30:41;13.65;;;10.57;;
36715;SDS011;22699;51.034;3.730;2022-10-31T07:33:32;19.25;;;11.57;;
36715;SDS011;22699;51.034;3.730;2022-10-31T07:36:12;16.27;;;11.20;;
36715;SDS011;22699;51.034;3.730;2022-10-31T07:38:56;18.10;;;11.70;;
36715;SDS011;22699;51.034;3.730;2022-10-31T07:41:50;16.70;;;11.13;;
36715;SDS011;22699;51.034;3.730;2022-10-31T07:44:56;17.77;;;11.23;;
36715;SDS011;22699;51.034;3.730;2022-10-31T07:47:27;15.80;;;11.15;;
36715;SDS011;22699;51.034;3.730;2022-10-31T07:53:02;23.75;;;13.00;;
36715;SDS011;22699;51.034;3.730;2022-10-31T07:55:41;14.25;;;11.52;;
36715;SDS011;22699;51.034;3.730;2022-10-31T07:58:24;17.40;;;12.25;;
36715;SDS011;22699;51.034;3.730;2022-10-31T08:00:59;17.58;;;11.63;;
36715;SDS011;22699;51.034;3.730;2022-10-31T08:03:35;15.45;;;11.48;;
36715;SDS011;22699;51.034;3.730;2022-10-31T08:06:22;17.98;;;12.30;;
36715;SDS011;22699;51.034;3.730;2022-10-31T08:09:16;15.75;;;11.35;;
36715;SDS011;22699;51.034;3.730;2022-10-31T08:11:50;19.73;;;12.48;;
36715;SDS011;22699;51.034;3.730;2022-10-31T08:14:34;14.68;;;11.32;;
36715;SDS011;22699;51.034;3.730;2022-10-31T08:17:03;18.65;;;11.48;;
36715;SDS011;22699;51.034;3.730;2022-10-31T08:21:57;15.43;;;9.98;;
36715;SDS011;22699;51.034;3.730;2022-10-31T08:24:23;20.52;;;13.25;;
36715;SDS011;22699;51.034;3.730;2022-10-31T08:26:49;14.57;;;11.52;;
36715;SDS011;22699;51.034;3.730;2022-10-31T08:29:18;17.85;;;11.38;;
36715;SDS011;22699;51.034;3.730;2022-10-31T08:31:43;15.73;;;11.80;;
36715;SDS011;22699;51.034;3.730;2022-10-31T08:34:09;13.77;;;11.00;;
36715;SDS011;22699;51.034;3.730;2022-10-31T08:36:34;19.27;;;12.05;;
36715;SDS011;22699;51.034;3.730;2022-10-31T08:39:00;18.90;;;13.15;;
36715;SDS011;22699;51.034;3.730;2022-10-31T08:41:26;13.80;;;10.77;;
36715;SDS011;22699;51.034;3.730;2022-10-31T08:43:52;12.82;;;9.65;;
36715;SDS011;22699;51.034;3.730;2022-10-31T08:46:18;14.07;;;10.23;;
36715;SDS011;22699;51.034;3.730;2022-10-31T08:48:43;15.77;;;11.50;;
36715;SDS011;22699;51.034;3.730;2022-10-31T08:51:10;14.70;;;11.38;;
36715;SDS011;22699;51.034;3.730;2022-10-31T08:53:36;17.73;;;11.40;;
36715;SDS011;22699;51.034;3.730;2022-10-31T08:56:01;17.85;;;10.50;;
36715;SDS011;22699;51.034;3.730;2022-10-31T08:58:27;16.65;;;11.18;;
36715;SDS011;22699;51.034;3.730;2022-10-31T09:00:53;11.95;;;10.32;;
36715;SDS011;22699;51.034;3.730;2022-10-31T09:05:47;13.18;;;10.20;;
36715;SDS011;22699;51.034;3.730;2022-10-31T09:08:13;13.20;;;9.63;;
36715;SDS011;22699;51.034;3.730;2022-10-31T09:10:40;15.02;;;9.93;;
36715;SDS011;22699;51.034;3.730;2022-10-31T09:13:08;15.55;;;10.00;;
36715;SDS011;22699;51.034;3.730;2022-10-31T09:15:36;13.13;;;10.10;;
36715;SDS011;22699;51.034;3.730;2022-10-31T09:18:05;17.13;;;10.73;;
36715;SDS011;22699;51.034;3.730;2022-10-31T09:20:33;15.13;;;10.35;;
36715;SDS011;22699;51.034;3.730;2022-10-31T09:23:01;13.10;;;9.38;;
36715;SDS011;22699;51.034;3.730;2022-10-31T09:25:34;13.13;;;10.45;;
36715;SDS011;22699;51.034;3.730;2022-10-31T09:28:01;12.70;;;9.52;;
36715;SDS011;22699;51.034;3.730;2022-10-31T09:30:29;11.70;;;8.82;;
36715;SDS011;22699;51.034;3.730;2022-10-31T09:32:58;13.32;;;9.50;;
36715;SDS011;22699;51.034;3.730;2022-10-31T09:35:26;14.07;;;10.27;;
36715;SDS011;22699;51.034;3.730;2022-10-31T09:37:57;14.23;;;10.02;;
36715;SDS011;22699;51.034;3.730;2022-10-31T09:40:25;12.85;;;9.57;;
36715;SDS011;22699;51.034;3.730;2022-10-31T09:51:25;15.77;;;11.20;;
36715;SDS011;22699;51.034;3.730;2022-10-31T09:53:59;13.80;;;10.35;;
36715;SDS011;22699;51.034;3.730;2022-10-31T09:56:41;18.75;;;10.60;;
36715;SDS011;22699;51.034;3.730;2022-10-31T09:59:12;15.07;;;11.30;;
36715;SDS011;22699;51.034;3.730;2022-10-31T10:01:54;14.07;;;10.50;;
36715;SDS011;22699;51.034;3.730;2022-10-31T10:04:32;15.65;;;11.20;;
36715;SDS011;22699;51.034;3.730;2022-10-31T10:07:22;17.58;;;10.63;;
36715;SDS011;22699;51.034;3.730;2022-10-31T10:10:10;17.45;;;10.45;;
36715;SDS011;22699;51.034;3.730;2022-10-31T10:17:43;14.55;;;12.10;;
36715;SDS011;22699;51.034;3.730;2022-10-31T10:25:40;16.30;;;11.05;;
36715;SDS011;22699;51.034;3.730;2022-10-31T10:28:15;14.25;;;10.18;;
36715;SDS011;22699;51.034;3.730;2022-10-31T10:35:59;12.63;;;9.83;;
36715;SDS011;22699;51.034;3.730;2022-10-31T10:41:14;17.52;;;10.65;;
36715;SDS011;22699;51.034;3.730;2022-10-31T10:43:43;13.00;;;10.43;;
36715;SDS011;22699;51.034;3.730;2022-10-31T10:49:28;17.38;;;10.02;;
36715;SDS011;22699;51.034;3.730;2022-10-31T11:00:30;13.63;;;8.43;;
36715;SDS011;22699;51.034;3.730;2022-10-31T11:02:59;19.23;;;11.50;;
36715;SDS011;22699;51.034;3.730;2022-10-31T11:08:26;14.00;;;9.48;;
36715;SDS011;22699;51.034;3.730;2022-10-31T11:10:58;12.45;;;9.80;;
36715;SDS011;22699;51.034;3.730;2022-10-31T11:13:39;13.75;;;9.50;;
36715;SDS011;22699;51.034;3.730;2022-10-31T11:16:12;15.57;;;8.80;;
36715;SDS011;22699;51.034;3.730;2022-10-31T11:18:44;18.43;;;9.30;;
36715;SDS011;22699;51.034;3.730;2022-10-31T11:21:22;14.02;;;9.15;;
36715;SDS011;22699;51.034;3.730;2022-10-31T11:24:02;14.13;;;9.02;;
36715;SDS011;22699;51.034;3.730;2022-10-31T11:26:29;13.68;;;9.38;;
36715;SDS011;22699;51.034;3.730;2022-10-31T11:28:58;14.73;;;9.95;;
36715;SDS011;22699;51.034;3.730;2022-10-31T11:31:25;16.40;;;11.18;;
36715;SDS011;22699;51.034;3.730;2022-10-31T11:34:02;12.75;;;9.75;;
36715;SDS011;22699;51.034;3.730;2022-10-31T11:36:30;12.80;;;8.98;;
36715;SDS011;22699;51.034;3.730;2022-10-31T11:38:59;14.80;;;10.35;;
36715;SDS011;22699;51.034;3.730;2022-10-31T11:41:28;13.93;;;10.35;;
36715;SDS011;22699;51.034;3.730;2022-10-31T11:43:58;16.92;;;10.70;;
36715;SDS011;22699;51.034;3.730;2022-10-31T11:49:36;13.25;;;9.00;;
36715;SDS011;22699;51.034;3.730;2022-10-31T11:52:05;10.68;;;9.13;;
36715;SDS011;22699;51.034;3.730;2022-10-31T11:54:39;16.60;;;9.82;;
36715;SDS011;22699;51.034;3.730;2022-10-31T11:57:07;21.83;;;9.65;;
36715;SDS011;22699;51.034;3.730;2022-10-31T11:59:57;13.30;;;9.18;;
36715;SDS011;22699;51.034;3.730;2022-10-31T12:02:28;16.23;;;9.15;;
36715;SDS011;22699;51.034;3.730;2022-10-31T12:07:45;12.25;;;9.02;;
36715;SDS011;22699;51.034;3.730;2022-10-31T12:10:14;14.55;;;9.52;;
36715;SDS011;22699;51.034;3.730;2022-10-31T12:15:33;15.98;;;10.18;;
36715;SDS011;22699;51.034;3.730;2022-10-31T12:21:10;13.73;;;9.95;;
36715;SDS011;22699;51.034;3.730;2022-10-31T12:26:53;17.30;;;9.75;;
36715;SDS011;22699;51.034;3.730;2022-10-31T12:29:49;14.15;;;9.80;;
36715;SDS011;22699;51.034;3.730;2022-10-31T12:32:33;13.65;;;10.07;;
36715;SDS011;22699;51.034;3.730;2022-10-31T12:43:34;14.38;;;9.65;;
36715;SDS011;22699;51.034;3.730;2022-10-31T12:49:22;15.20;;;10.90;;
36715;SDS011;22699;51.034;3.730;2022-10-31T12:58:35;16.38;;;10.32;;
36715;SDS011;22699;51.034;3.730;2022-10-31T13:01:44;16.35;;;11.00;;
36715;SDS011;22699;51.034;3.730;2022-10-31T13:04:11;12.65;;;10.43;;
36715;SDS011;22699;51.034;3.730;2022-10-31T13:06:48;15.43;;;9.93;;
36715;SDS011;22699;51.034;3.730;2022-10-31T13:09:38;12.23;;;10.73;;
36715;SDS011;22699;51.034;3.730;2022-10-31T13:12:11;14.18;;;10.27;;
36715;SDS011;22699;51.034;3.730;2022-10-31T13:14:44;14.10;;;9.50;;
36715;SDS011;22699;51.034;3.730;2022-10-31T13:17:27;14.90;;;10.38;;
36715;SDS011;22699;51.034;3.730;2022-10-31T13:22:38;15.95;;;10.18;;
36715;SDS011;22699;51.034;3.730;2022-10-31T13:27:53;13.13;;;9.68;;
36715;SDS011;22699;51.034;3.730;2022-10-31T13:38:37;14.70;;;9.73;;
36715;SDS011;22699;51.034;3.730;2022-10-31T13:41:13;15.38;;;10.65;;
36715;SDS011;22699;51.034;3.730;2022-10-31T13:48:59;15.73;;;10.68;;
36715;SDS011;22699;51.034;3.730;2022-10-31T13:51:31;16.67;;;11.45;;
36715;SDS011;22699;51.034;3.730;2022-10-31T13:54:04;14.23;;;10.52;;
36715;SDS011;22699;51.034;3.730;2022-10-31T13:56:58;13.35;;;10.02;;
36715;SDS011;22699;51.034;3.730;2022-10-31T13:59:25;14.32;;;10.40;;
36715;SDS011;22699;51.034;3.730;2022-10-31T14:01:59;16.77;;;10.15;;
36715;SDS011;22699;51.034;3.730;2022-10-31T14:04:44;15.32;;;11.13;;
36715;SDS011;22699;51.034;3.730;2022-10-31T14:07:14;19.98;;;11.52;;
36715;SDS011;22699;51.034;3.730;2022-10-31T14:09:57;12.63;;;10.38;;
36715;SDS011;22699;51.034;3.730;2022-10-31T14:17:44;18.55;;;10.85;;
36715;SDS011;22699;51.034;3.730;2022-10-31T14:22:42;17.05;;;11.95;;
36715;SDS011;22699;51.034;3.730;2022-10-31T14:27:56;20.23;;;11.70;;
36715;SDS011;22699;51.034;3.730;2022-10-31T14:30:24;19.38;;;12.73;;
36715;SDS011;22699;51.034;3.730;2022-10-31T14:32:52;16.02;;;11.52;;
36715;SDS011;22699;51.034;3.730;2022-10-31T14:35:21;25.00;;;13.05;;
36715;SDS011;22699;51.034;3.730;2022-10-31T14:38:02;18.75;;;12.30;;
36715;SDS011;22699;51.034;3.730;2022-10-31T14:43:49;18.15;;;12.40;;
36715;SDS011;22699;51.034;3.730;2022-10-31T14:46:50;16.58;;;13.02;;
36715;SDS011;22699;51.034;3.730;2022-10-31T14:49:34;17.30;;;12.27;;
36715;SDS011;22699;51.034;3.730;2022-10-31T14:52:17;25.08;;;12.80;;
36715;SDS011;22699;51.034;3.730;2022-10-31T14:54:46;19.23;;;12.88;;
36715;SDS011;22699;51.034;3.730;2022-10-31T14:57:21;17.77;;;12.25;;
36715;SDS011;22699;51.034;3.730;2022-10-31T14:59:53;19.08;;;12.15;;
36715;SDS011;22699;51.034;3.730;2022-10-31T15:02:28;19.35;;;12.70;;
36715;SDS011;22699;51.034;3.730;2022-10-31T15:05:01;21.92;;;12.40;;
36715;SDS011;22699;51.034;3.730;2022-10-31T15:07:48;23.67;;;13.13;;
36715;SDS011;22699;51.034;3.730;2022-10-31T15:10:21;20.20;;;13.23;;
36715;SDS011;22699;51.034;3.730;2022-10-31T15:12:51;17.77;;;12.70;;
36715;SDS011;22699;51.034;3.730;2022-10-31T15:15:25;23.38;;;12.98;;
36715;SDS011;22699;51.034;3.730;2022-10-31T15:17:58;21.33;;;13.30;;
36715;SDS011;22699;51.034;3.730;2022-10-31T15:20:26;22.27;;;14.18;;
36715;SDS011;22699;51.034;3.730;2022-10-31T15:22:57;22.92;;;15.05;;
36715;SDS011;22699;51.034;3.730;2022-10-31T15:25:24;17.85;;;13.18;;
36715;SDS011;22699;51.034;3.730;2022-10-31T15:27:53;22.75;;;13.23;;
36715;SDS011;22699;51.034;3.730;2022-10-31T15:30:22;22.27;;;13.27;;
36715;SDS011;22699;51.034;3.730;2022-10-31T15:32:50;22.48;;;14.70;;
36715;SDS011;22699;51.034;3.730;2022-10-31T15:35:21;22.33;;;13.40;;
36715;SDS011;22699;51.034;3.730;2022-10-31T15:37:49;24.60;;;13.88;;
36715;SDS011;22699;51.034;3.730;2022-10-31T15:40:17;26.17;;;14.63;;
36715;SDS011;22699;51.034;3.730;2022-10-31T15:42:47;20.98;;;13.75;;
36715;SDS011;22699;51.034;3.730;2022-10-31T15:47:53;19.70;;;12.68;;
36715;SDS011;22699;51.034;3.730;2022-10-31T15:52:57;22.65;;;13.82;;
36715;SDS011;22699;51.034;3.730;2022-10-31T15:55:25;20.02;;;13.00;;
36715;SDS011;22699;51.034;3.730;2022-10-31T15:58:02;20.08;;;12.52;;
36715;SDS011;22699;51.034;3.730;2022-10-31T16:00:39;18.98;;;11.93;;
36715;SDS011;22699;51.034;3.730;2022-10-31T16:05:52;15.68;;;12.18;;
36715;SDS011;22699;51.034;3.730;2022-10-31T16:11:02;21.98;;;12.73;;
36715;SDS011;22699;51.034;3.730;2022-10-31T16:14:00;22.90;;;12.13;;
36715;SDS011;22699;51.034;3.730;2022-10-31T16:16:27;20.52;;;12.10;;
36715;SDS011;22699;51.034;3.730;2022-10-31T16:18:54;20.05;;;12.07;;
36715;SDS011;22699;51.034;3.730;2022-10-31T16:21:34;24.83;;;12.82;;
36715;SDS011;22699;51.034;3.730;2022-10-31T16:24:20;19.00;;;11.95;;
36715;SDS011;22699;51.034;3.730;2022-10-31T16:26:54;20.40;;;12.38;;
36715;SDS011;22699;51.034;3.730;2022-10-31T16:29:26;18.42;;;10.95;;
36715;SDS011;22699;51.034;3.730;2022-10-31T16:35:21;21.48;;;10.80;;
36715;SDS011;22699;51.034;3.730;2022-10-31T16:40:22;17.00;;;10.70;;
36715;SDS011;22699;51.034;3.730;2022-10-31T16:42:48;14.77;;;10.38;;
36715;SDS011;22699;51.034;3.730;2022-10-31T16:47:44;17.45;;;10.70;;
36715;SDS011;22699;51.034;3.730;2022-10-31T16:52:50;26.42;;;14.05;;
36715;SDS011;22699;51.034;3.730;2022-10-31T16:55:17;22.65;;;12.73;;
36715;SDS011;22699;51.034;3.730;2022-10-31T16:57:51;20.95;;;13.63;;
36715;SDS011;22699;51.034;3.730;2022-10-31T17:00:21;19.95;;;12.70;;
36715;SDS011;22699;51.034;3.730;2022-10-31T17:02:49;18.92;;;12.30;;
36715;SDS011;22699;51.034;3.730;2022-10-31T17:07:46;18.38;;;11.90;;
36715;SDS011;22699;51.034;3.730;2022-10-31T17:10:15;18.88;;;11.43;;
36715;SDS011;22699;51.034;3.730;2022-10-31T17:12:44;21.55;;;12.40;;
36715;SDS011;22699;51.034;3.730;2022-10-31T17:17:44;18.83;;;12.13;;
36715;SDS011;22699;51.034;3.730;2022-10-31T17:20:17;17.95;;;11.48;;
36715;SDS011;22699;51.034;3.730;2022-10-31T17:22:43;16.98;;;11.05;;
36715;SDS011;22699;51.034;3.730;2022-10-31T17:25:20;13.82;;;9.95;;
36715;SDS011;22699;51.034;3.730;2022-10-31T17:27:48;20.85;;;12.60;;
36715;SDS011;22699;51.034;3.730;2022-10-31T17:30:16;22.52;;;12.85;;
36715;SDS011;22699;51.034;3.730;2022-10-31T17:32:46;21.05;;;12.35;;
36715;SDS011;22699;51.034;3.730;2022-10-31T17:35:16;16.02;;;10.93;;
36715;SDS011;22699;51.034;3.730;2022-10-31T17:37:42;18.73;;;10.63;;
36715;SDS011;22699;51.034;3.730;2022-10-31T17:40:11;20.23;;;10.55;;
36715;SDS011;22699;51.034;3.730;2022-10-31T17:42:41;17.58;;;10.80;;
36715;SDS011;22699;51.034;3.730;2022-10-31T17:47:38;14.10;;;8.70;;
36715;SDS011;22699;51.034;3.730;2022-10-31T17:50:19;15.73;;;8.10;;
36715;SDS011;22699;51.034;3.730;2022-10-31T17:52:51;12.73;;;7.93;;
36715;SDS011;22699;51.034;3.730;2022-10-31T17:55:18;12.63;;;7.55;;
36715;SDS011;22699;51.034;3.730;2022-10-31T17:57:47;22.92;;;7.88;;
36715;SDS011;22699;51.034;3.730;2022-10-31T18:00:19;14.02;;;7.95;;
36715;SDS011;22699;51.034;3.730;2022-10-31T18:02:49;13.50;;;6.80;;
36715;SDS011;22699;51.034;3.730;2022-10-31T18:05:21;12.73;;;7.20;;
36715;SDS011;22699;51.034;3.730;2022-10-31T18:10:16;14.50;;;6.90;;
36715;SDS011;22699;51.034;3.730;2022-10-31T18:15:19;14.00;;;7.80;;
36715;SDS011;22699;51.034;3.730;2022-10-31T18:17:46;14.15;;;7.53;;
36715;SDS011;22699;51.034;3.730;2022-10-31T18:20:15;14.57;;;6.75;;
36715;SDS011;22699;51.034;3.730;2022-10-31T18:25:12;14.50;;;7.18;;
36715;SDS011;22699;51.034;3.730;2022-10-31T18:30:07;16.33;;;6.95;;
36715;SDS011;22699;51.034;3.730;2022-10-31T18:32:35;14.73;;;6.78;;